Time;durP1;ratioP1;P1;durP2;ratioP2;P2;SDS_P1;SDS_P2;PMS_P1;PMS_P2;Temp;Humidity;BMP_temperature;BMP_pressure;BME280_temperature;BME280_humidity;BME280_pressure;Samples;Min_cycle;Max_cycle;Signal;HPM_P1;HPM_P2
2023/07/12 00:00:19;;;;;;;16.65;6.85;;;31.00;99.90;;;;;;5032896;28;20049;-66
2023/07/12 00:02:44;;;;;;;25.90;6.50;;;31.10;99.90;;;;;;5032297;28;20131;-67
2023/07/12 00:05:10;;;;;;;19.55;6.45;;;31.10;99.90;;;;;;5032091;28;20467;-67
2023/07/12 00:07:36;;;;;;;24.33;6.63;;;31.30;99.90;;;;;;5032962;28;20021;-67
2023/07/12 00:10:02;;;;;;;25.75;7.28;;;31.00;99.90;;;;;;5030606;28;20479;-66
2023/07/12 00:12:28;;;;;;;25.15;6.68;;;30.80;99.90;;;;;;5031300;28;20037;-67
2023/07/12 00:14:53;;;;;;;24.73;6.57;;;30.70;99.90;;;;;;5032260;28;20030;-66
2023/07/12 00:17:21;;;;;;;17.77;6.72;;;30.40;99.90;;;;;;5031871;28;20041;-66
2023/07/12 00:19:47;;;;;;;23.15;7.32;;;30.40;99.90;;;;;;5031981;28;20045;-66
2023/07/12 00:22:13;;;;;;;18.85;5.88;;;30.50;99.90;;;;;;5032702;28;20029;-66
2023/07/12 00:24:38;;;;;;;21.27;6.53;;;30.40;99.90;;;;;;5031706;28;20045;-66
2023/07/12 00:27:04;;;;;;;26.70;6.55;;;30.30;99.90;;;;;;5034303;28;20475;-67
2023/07/12 00:29:30;;;;;;;22.88;7.05;;;30.50;99.90;;;;;;5036788;28;20475;-67
2023/07/12 00:31:55;;;;;;;22.88;7.15;;;30.50;99.90;;;;;;5035843;28;20026;-66
2023/07/12 00:34:21;;;;;;;24.02;7.07;;;30.50;99.90;;;;;;5036708;28;20088;-67
2023/07/12 00:36:47;;;;;;;20.70;6.57;;;30.20;99.90;;;;;;5035662;28;20029;-67
2023/07/12 00:39:13;;;;;;;20.33;6.22;;;30.50;99.90;;;;;;5035833;28;20471;-67
2023/07/12 00:42:03;;;;;;;22.23;6.65;;;30.40;99.90;;;;;;5035838;28;20037;-67
2023/07/12 00:44:46;;;;;;;22.00;6.75;;;30.80;99.90;;;;;;5034672;28;20411;-67
2023/07/12 00:47:13;;;;;;;23.90;7.13;;;30.60;99.90;;;;;;5035831;28;20030;-66
2023/07/12 00:49:39;;;;;;;17.38;5.65;;;30.60;99.90;;;;;;5022849;28;20036;-66
2023/07/12 00:52:17;;;;;;;20.60;6.38;;;30.50;99.90;;;;;;5034734;28;20191;-66
2023/07/12 00:54:58;;;;;;;23.77;6.45;;;30.70;99.90;;;;;;5022642;28;20109;-66
2023/07/12 00:57:27;;;;;;;19.42;6.63;;;30.70;99.90;;;;;;5032794;28;20049;-66
2023/07/12 00:59:56;;;;;;;22.70;6.30;;;30.70;99.90;;;;;;5036200;28;20021;-66
2023/07/12 01:02:25;;;;;;;18.35;6.72;;;30.80;99.90;;;;;;5035570;28;20474;-66
2023/07/12 01:04:56;;;;;;;19.33;6.88;;;30.60;99.90;;;;;;5035931;28;20120;-66
2023/07/12 01:07:22;;;;;;;14.27;6.38;;;30.80;99.90;;;;;;5034509;28;20434;-66
2023/07/12 01:09:48;;;;;;;19.42;6.05;;;30.70;99.90;;;;;;5035580;28;20025;-66
2023/07/12 01:12:14;;;;;;;24.02;6.50;;;30.60;99.90;;;;;;5035001;28;20079;-66
2023/07/12 01:14:42;;;;;;;20.08;6.28;;;30.40;99.90;;;;;;5035010;28;20033;-66
2023/07/12 01:17:08;;;;;;;23.77;6.20;;;30.40;99.90;;;;;;5034585;28;20124;-66
2023/07/12 01:19:36;;;;;;;21.00;6.20;;;30.50;99.90;;;;;;5034563;28;20060;-67
2023/07/12 01:22:03;;;;;;;23.10;6.80;;;30.40;99.90;;;;;;5034126;28;20052;-66
2023/07/12 01:24:31;;;;;;;22.27;6.15;;;30.30;99.90;;;;;;5035692;28;20042;-66
2023/07/12 01:27:10;;;;;;;17.83;6.25;;;30.20;99.90;;;;;;5033107;28;20025;-66
2023/07/12 01:29:36;;;;;;;17.85;6.05;;;30.20;99.90;;;;;;5034120;28;20034;-67
2023/07/12 01:32:01;;;;;;;19.83;5.65;;;30.20;99.90;;;;;;5035859;28;20037;-66
2023/07/12 01:34:27;;;;;;;20.67;6.55;;;30.00;99.90;;;;;;5034476;28;20037;-66
2023/07/12 01:36:53;;;;;;;26.02;6.45;;;30.30;99.90;;;;;;5035514;28;20096;-67
2023/07/12 01:39:19;;;;;;;19.08;6.25;;;30.20;99.90;;;;;;5034242;28;20029;-66
2023/07/12 01:41:45;;;;;;;23.42;5.90;;;30.10;99.90;;;;;;5034498;28;20480;-64
2023/07/12 01:44:10;;;;;;;19.45;5.80;;;30.30;99.90;;;;;;5035277;28;20045;-65
2023/07/12 01:46:36;;;;;;;17.73;7.47;;;30.20;99.90;;;;;;5031645;28;20025;-66
2023/07/12 01:49:02;;;;;;;19.02;6.32;;;30.20;99.90;;;;;;5035284;28;20030;-67
2023/07/12 01:51:29;;;;;;;23.23;6.00;;;30.20;99.90;;;;;;5033712;28;20076;-66
2023/07/12 01:53:55;;;;;;;15.88;5.97;;;30.30;99.90;;;;;;5032074;28;20038;-66
2023/07/12 01:56:21;;;;;;;25.02;6.60;;;30.30;99.90;;;;;;5032419;28;20996;-66
2023/07/12 01:58:47;;;;;;;24.30;7.30;;;30.40;99.90;;;;;;5035020;28;20057;-66
2023/07/12 02:01:13;;;;;;;17.05;6.57;;;30.40;99.90;;;;;;5035242;28;20021;-66
2023/07/12 02:03:39;;;;;;;19.90;6.45;;;30.60;99.90;;;;;;5034159;28;20090;-66
2023/07/12 02:06:04;;;;;;;18.40;6.38;;;30.50;99.90;;;;;;5034955;28;20159;-66
2023/07/12 02:08:30;;;;;;;17.92;5.88;;;30.50;99.90;;;;;;5034197;28;20116;-66
2023/07/12 02:10:56;;;;;;;18.77;6.30;;;30.50;99.90;;;;;;5035145;28;20032;-67
2023/07/12 02:13:22;;;;;;;19.83;5.95;;;30.20;99.90;;;;;;5031245;28;20022;-67
2023/07/12 02:15:48;;;;;;;13.65;5.65;;;30.20;99.90;;;;;;5033456;28;20026;-66
2023/07/12 02:18:14;;;;;;;17.73;6.90;;;30.40;99.90;;;;;;5033753;28;20022;-66
2023/07/12 02:20:40;;;;;;;16.45;6.10;;;30.40;99.90;;;;;;5033488;28;20037;-67
2023/07/12 02:23:07;;;;;;;18.80;5.45;;;30.30;99.90;;;;;;5033753;28;20041;-66
2023/07/12 02:25:33;;;;;;;15.05;6.30;;;30.30;99.90;;;;;;5034662;28;20033;-66
2023/07/12 02:27:58;;;;;;;19.42;6.30;;;30.20;99.90;;;;;;5033750;28;20041;-66
2023/07/12 02:30:28;;;;;;;16.65;5.07;;;30.30;99.90;;;;;;5027573;28;20030;-66
2023/07/12 02:32:54;;;;;;;17.35;5.60;;;30.20;99.90;;;;;;5032599;28;20433;-66
2023/07/12 02:35:27;;;;;;;12.25;5.30;;;30.10;99.90;;;;;;5032795;28;20384;-66
2023/07/12 02:37:54;;;;;;;13.32;5.45;;;30.30;99.90;;;;;;5033625;28;20028;-66
2023/07/12 02:40:19;;;;;;;12.15;5.85;;;30.40;99.90;;;;;;5034189;28;20501;-66
2023/07/12 02:42:45;;;;;;;17.63;5.88;;;30.50;99.90;;;;;;5033247;28;20104;-66
2023/07/12 02:45:11;;;;;;;12.57;6.38;;;30.40;99.90;;;;;;5032909;28;20506;-67
2023/07/12 02:47:36;;;;;;;11.43;5.53;;;30.20;99.90;;;;;;5033342;28;20061;-66
2023/07/12 02:50:03;;;;;;;17.67;6.07;;;30.20;99.90;;;;;;5033190;28;20522;-66
2023/07/12 02:52:29;;;;;;;16.05;6.20;;;30.10;99.90;;;;;;5030659;28;20087;-66
2023/07/12 02:54:55;;;;;;;14.98;6.18;;;30.20;99.90;;;;;;5033517;28;20022;-66
2023/07/12 02:57:20;;;;;;;15.52;5.75;;;30.10;99.90;;;;;;5031551;28;20231;-67
2023/07/12 02:59:46;;;;;;;14.77;6.53;;;30.20;99.90;;;;;;5033937;28;20470;-66
2023/07/12 03:02:12;;;;;;;13.40;5.93;;;30.00;99.90;;;;;;5032205;28;20885;-66
2023/07/12 03:04:38;;;;;;;14.13;6.25;;;30.00;99.90;;;;;;5033631;28;20171;-67
2023/07/12 03:07:04;;;;;;;13.32;6.32;;;30.10;99.90;;;;;;5032829;28;20108;-66
2023/07/12 03:09:30;;;;;;;11.68;6.30;;;29.90;99.90;;;;;;5032448;28;20045;-67
2023/07/12 03:11:55;;;;;;;11.35;6.10;;;29.90;99.90;;;;;;5033698;28;20022;-66
2023/07/12 03:14:23;;;;;;;10.45;6.53;;;29.90;99.90;;;;;;5032765;28;20017;-66
2023/07/12 03:16:49;;;;;;;11.98;6.93;;;29.90;99.90;;;;;;5032685;28;20387;-66
2023/07/12 03:19:15;;;;;;;9.82;6.80;;;29.80;99.90;;;;;;5033569;28;20482;-66
2023/07/12 03:21:41;;;;;;;14.25;6.60;;;29.70;99.90;;;;;;5030251;28;21060;-66
2023/07/12 03:24:08;;;;;;;11.27;6.15;;;29.80;99.90;;;;;;5032853;28;20394;-66
2023/07/12 03:26:35;;;;;;;12.02;6.78;;;29.80;99.90;;;;;;5028158;28;20120;-66
2023/07/12 03:29:01;;;;;;;11.90;6.38;;;29.80;99.90;;;;;;5033451;28;20036;-66
2023/07/12 03:31:28;;;;;;;11.82;5.90;;;29.80;99.90;;;;;;5032495;28;20017;-66
2023/07/12 03:33:54;;;;;;;13.30;6.43;;;29.80;99.90;;;;;;5033422;28;20021;-66
2023/07/12 03:36:24;;;;;;;12.10;6.35;;;29.90;99.90;;;;;;5032201;28;20036;-66
2023/07/12 03:38:50;;;;;;;8.75;5.30;;;29.80;99.90;;;;;;5033442;28;20042;-66
2023/07/12 03:41:16;;;;;;;11.55;5.53;;;29.80;99.90;;;;;;5032503;28;20471;-66
2023/07/12 03:43:42;;;;;;;7.40;5.43;;;29.70;99.90;;;;;;5033306;28;20030;-66
2023/07/12 03:46:08;;;;;;;8.80;4.88;;;29.60;99.90;;;;;;5031269;28;20471;-66
2023/07/12 03:48:33;;;;;;;7.90;4.47;;;29.80;99.90;;;;;;5032240;28;20037;-67
2023/07/12 03:51:00;;;;;;;5.75;4.82;;;29.60;99.90;;;;;;5031986;28;20467;-66
2023/07/12 03:53:27;;;;;;;8.45;4.60;;;29.80;99.90;;;;;;5033177;28;20010;-66
2023/07/12 03:55:56;;;;;;;7.95;4.70;;;29.70;99.90;;;;;;5030192;28;20159;-66
2023/07/12 03:58:23;;;;;;;6.00;4.30;;;29.90;99.90;;;;;;5031842;28;20060;-66
2023/07/12 04:00:50;;;;;;;6.07;3.85;;;29.90;99.90;;;;;;5031025;28;20099;-66
2023/07/12 04:03:17;;;;;;;5.40;4.20;;;29.50;99.90;;;;;;5033246;28;20388;-66
2023/07/12 04:05:44;;;;;;;5.20;4.60;;;29.70;99.90;;;;;;5031918;28;20056;-66
2023/07/12 04:08:12;;;;;;;6.00;3.95;;;29.70;99.90;;;;;;5031602;28;20033;-67
2023/07/12 04:10:37;;;;;;;5.70;3.83;;;29.70;99.90;;;;;;5032780;28;20057;-66
2023/07/12 04:13:03;;;;;;;7.13;3.80;;;29.70;99.90;;;;;;5031966;28;20438;-66
2023/07/12 04:15:29;;;;;;;7.00;4.15;;;29.50;99.90;;;;;;5031506;28;20037;-67
2023/07/12 04:17:55;;;;;;;8.68;3.70;;;29.30;99.90;;;;;;5033078;28;20116;-67
2023/07/12 04:20:21;;;;;;;6.80;3.92;;;29.10;99.90;;;;;;5031681;28;20073;-66
2023/07/12 04:22:51;;;;;;;6.88;4.00;;;28.90;99.90;;;;;;5031829;28;20044;-66
2023/07/12 04:25:17;;;;;;;8.73;3.85;;;29.10;99.90;;;;;;5032081;28;20083;-66
2023/07/12 04:27:44;;;;;;;7.70;4.03;;;29.00;99.90;;;;;;5031733;28;20017;-66
2023/07/12 04:30:14;;;;;;;6.75;3.83;;;29.10;99.90;;;;;;5032683;28;20033;-67
2023/07/12 04:32:41;;;;;;;6.03;3.95;;;28.70;99.90;;;;;;5031846;28;20146;-66
2023/07/12 04:35:07;;;;;;;10.30;4.28;;;28.70;99.90;;;;;;5032557;28;20021;-67
2023/07/12 04:37:32;;;;;;;10.00;4.55;;;28.50;99.90;;;;;;5031748;28;20113;-67
2023/07/12 04:39:58;;;;;;;7.90;4.15;;;28.80;99.90;;;;;;5031842;28;20029;-67
2023/07/12 04:42:24;;;;;;;5.43;3.70;;;29.00;99.90;;;;;;5031862;28;20498;-67
2023/07/12 04:44:49;;;;;;;5.72;3.63;;;29.00;99.90;;;;;;5032551;28;20041;-66
2023/07/12 04:47:16;;;;;;;7.75;3.88;;;29.10;99.90;;;;;;5031877;28;20065;-67
2023/07/12 04:49:43;;;;;;;9.48;4.70;;;29.00;99.90;;;;;;5032779;28;20033;-66
2023/07/12 04:52:11;;;;;;;7.35;4.30;;;29.00;99.90;;;;;;5031667;28;20027;-66
2023/07/12 04:54:39;;;;;;;4.55;3.72;;;28.90;99.90;;;;;;5032740;28;20032;-66
2023/07/12 04:57:05;;;;;;;7.32;4.03;;;29.00;99.90;;;;;;5030612;28;20040;-67
2023/07/12 04:59:31;;;;;;;9.27;4.07;;;28.90;99.90;;;;;;5031777;28;20404;-66
2023/07/12 05:01:57;;;;;;;8.65;3.80;;;28.90;99.90;;;;;;5032049;28;20025;-66
2023/07/12 05:04:22;;;;;;;10.30;4.30;;;28.80;99.90;;;;;;5031394;28;20382;-66
2023/07/12 05:06:48;;;;;;;6.72;3.67;;;28.80;99.90;;;;;;5029987;28;20590;-66
2023/07/12 05:09:14;;;;;;;8.00;3.85;;;28.70;99.90;;;;;;5032053;28;20487;-67
2023/07/12 05:11:39;;;;;;;6.32;3.50;;;28.80;99.90;;;;;;5031409;28;20459;-66
2023/07/12 05:14:05;;;;;;;7.43;3.85;;;28.90;99.90;;;;;;5034390;28;20033;-66
2023/07/12 05:16:31;;;;;;;7.97;3.92;;;28.70;99.90;;;;;;5034921;28;20045;-66
2023/07/12 05:18:56;;;;;;;9.07;3.78;;;28.70;99.90;;;;;;5035892;28;20505;-66
2023/07/12 05:21:24;;;;;;;8.30;4.28;;;28.80;99.90;;;;;;5035109;28;20064;-66
2023/07/12 05:23:49;;;;;;;8.93;3.95;;;28.80;99.90;;;;;;5035776;28;20033;-67
2023/07/12 05:26:16;;;;;;;10.73;4.10;;;28.80;99.90;;;;;;5035004;28;20086;-66
2023/07/12 05:28:41;;;;;;;7.43;3.53;;;28.90;99.90;;;;;;5034432;28;20029;-66
2023/07/12 05:31:09;;;;;;;6.95;4.22;;;29.00;99.90;;;;;;5033306;28;20502;-66
2023/07/12 05:33:34;;;;;;;8.10;4.57;;;29.00;99.90;;;;;;5030601;28;20082;-66
2023/07/12 05:36:01;;;;;;;11.90;4.57;;;29.10;99.90;;;;;;5034449;28;20033;-66
2023/07/12 05:38:28;;;;;;;9.13;5.45;;;29.00;99.90;;;;;;5035019;28;20033;-66
2023/07/12 05:40:56;;;;;;;7.45;4.75;;;28.80;99.90;;;;;;5035473;28;20017;-66
2023/07/12 05:43:23;;;;;;;6.72;4.38;;;28.80;99.90;;;;;;5033646;28;20034;-66
2023/07/12 05:45:49;;;;;;;8.10;4.65;;;28.80;99.90;;;;;;5033138;28;20108;-67
2023/07/12 05:48:15;;;;;;;10.52;4.63;;;29.00;99.90;;;;;;5033605;28;20069;-66
2023/07/12 05:50:40;;;;;;;8.32;4.57;;;28.70;99.90;;;;;;5033987;28;20022;-66
2023/07/12 05:53:06;;;;;;;7.75;4.30;;;28.50;99.90;;;;;;5033934;28;20025;-66
2023/07/12 05:55:32;;;;;;;9.20;4.55;;;28.60;99.90;;;;;;5033288;28;20049;-66
2023/07/12 05:57:58;;;;;;;4.93;4.07;;;29.10;99.90;;;;;;5033380;28;20053;-66
2023/07/12 06:00:23;;;;;;;7.38;3.72;;;29.40;99.90;;;;;;5027656;28;20556;-66
2023/07/12 06:02:49;;;;;;;8.02;3.72;;;29.70;99.90;;;;;;5026369;28;20108;-66
2023/07/12 06:05:16;;;;;;;9.77;4.45;;;29.90;99.90;;;;;;5034986;28;20376;-66
2023/07/12 06:07:42;;;;;;;8.05;4.15;;;29.90;99.90;;;;;;5033046;28;20057;-66
2023/07/12 06:10:08;;;;;;;11.13;4.03;;;29.50;99.90;;;;;;5033962;28;20500;-66
2023/07/12 06:12:34;;;;;;;6.88;2.90;;;29.00;99.90;;;;;;5034917;28;20459;-66
2023/07/12 06:15:00;;;;;;;10.82;3.03;;;28.80;99.90;;;;;;5033949;28;20029;-66
2023/07/12 06:17:25;;;;;;;13.50;3.45;;;28.40;99.90;;;;;;5032851;28;20073;-67
2023/07/12 06:19:51;;;;;;;11.52;2.72;;;28.10;99.90;;;;;;5032791;28;20048;-67
2023/07/12 06:22:17;;;;;;;6.32;2.80;;;28.20;99.90;;;;;;5033773;28;20018;-67
2023/07/12 06:24:42;;;;;;;5.00;2.75;;;28.70;99.90;;;;;;5034337;28;20038;-67
2023/07/12 06:27:08;;;;;;;6.00;2.65;;;28.90;99.90;;;;;;5031806;28;20175;-67
2023/07/12 06:29:34;;;;;;;5.15;2.60;;;29.00;99.90;;;;;;5034672;28;20029;-68
2023/07/12 06:31:59;;;;;;;6.00;2.50;;;29.10;99.90;;;;;;5032501;28;20023;-60
2023/07/12 06:34:25;;;;;;;7.97;2.35;;;29.00;99.90;;;;;;5033665;28;20104;-59
2023/07/12 06:36:51;;;;;;;6.18;2.80;;;29.30;99.90;;;;;;5033632;28;20112;-60
2023/07/12 06:39:17;;;;;;;4.80;2.63;;;29.70;99.90;;;;;;5034578;28;20022;-60
2023/07/12 06:41:42;;;;;;;5.90;2.53;;;29.70;99.90;;;;;;5033489;28;20030;-60
2023/07/12 06:44:08;;;;;;;5.93;2.13;;;29.50;99.90;;;;;;5033469;28;20048;-60
2023/07/12 06:46:34;;;;;;;7.03;2.63;;;29.50;99.90;;;;;;5033154;28;20029;-61
2023/07/12 06:48:59;;;;;;;5.10;2.55;;;29.60;99.90;;;;;;5034225;28;20029;-61
2023/07/12 06:51:25;;;;;;;8.55;2.70;;;29.50;99.90;;;;;;5027711;28;20395;-61
2023/07/12 06:53:51;;;;;;;5.45;2.88;;;29.60;99.90;;;;;;5025784;28;20044;-61
2023/07/12 06:56:17;;;;;;;4.70;2.80;;;29.60;99.90;;;;;;5031726;28;20037;-61
2023/07/12 06:58:42;;;;;;;5.55;2.80;;;29.70;99.90;;;;;;5032910;28;20506;-59
2023/07/12 07:01:09;;;;;;;9.23;3.70;;;29.50;99.90;;;;;;5033961;28;20094;-59
2023/07/12 07:03:35;;;;;;;5.40;2.50;;;29.90;99.90;;;;;;5030949;28;20079;-59
2023/07/12 07:06:01;;;;;;;4.47;2.72;;;29.50;99.90;;;;;;5024576;28;20041;-59
2023/07/12 07:08:29;;;;;;;5.20;2.70;;;29.50;99.90;;;;;;5033667;28;20025;-62
2023/07/12 07:10:56;;;;;;;5.13;2.63;;;29.60;99.90;;;;;;5033071;28;20025;-60
2023/07/12 07:13:23;;;;;;;4.63;2.20;;;29.50;99.90;;;;;;5032686;28;20032;-61
2023/07/12 07:15:49;;;;;;;5.95;2.45;;;29.90;99.90;;;;;;5032299;28;20408;-61
2023/07/12 07:18:15;;;;;;;5.28;2.38;;;30.20;99.90;;;;;;5031020;28;20159;-62
2023/07/12 07:20:41;;;;;;;8.38;2.50;;;30.30;99.90;;;;;;5032961;28;20120;-63
2023/07/12 07:23:09;;;;;;;5.63;3.10;;;30.20;99.90;;;;;;5033695;28;20541;-60
2023/07/12 07:25:34;;;;;;;7.38;2.47;;;30.30;99.90;;;;;;5032720;28;20061;-61
2023/07/12 07:28:00;;;;;;;6.07;2.63;;;30.30;99.90;;;;;;5032976;28;20107;-61
2023/07/12 07:30:27;;;;;;;4.13;2.55;;;30.50;99.90;;;;;;5032814;28;20496;-65
2023/07/12 07:32:54;;;;;;;4.97;2.95;;;30.50;99.90;;;;;;5031614;28;20360;-59
2023/07/12 07:35:21;;;;;;;5.78;2.30;;;30.40;99.90;;;;;;5032588;28;20123;-62
2023/07/12 07:37:48;;;;;;;5.43;2.60;;;30.80;99.90;;;;;;5032607;28;20049;-61
2023/07/12 07:40:14;;;;;;;5.85;2.40;;;30.90;99.90;;;;;;5033017;28;20104;-66
2023/07/12 07:42:41;;;;;;;3.30;1.95;;;30.30;99.90;;;;;;5030225;28;20437;-66
2023/07/12 07:45:09;;;;;;;5.20;2.53;;;30.10;99.90;;;;;;5033645;28;20041;-73
2023/07/12 07:47:35;;;;;;;6.75;2.90;;;30.20;99.90;;;;;;5030201;28;20033;-66
2023/07/12 07:50:01;;;;;;;12.98;2.70;;;30.30;99.90;;;;;;5034025;28;20467;-63
2023/07/12 07:52:27;;;;;;;6.35;2.75;;;30.40;99.90;;;;;;5034494;28;20036;-61
2023/07/12 07:54:53;;;;;;;10.38;3.33;;;30.40;99.90;;;;;;5035348;28;20032;-64
2023/07/12 07:57:20;;;;;;;7.80;2.95;;;30.10;99.90;;;;;;5026649;28;20038;-62
2023/07/12 07:59:46;;;;;;;3.72;2.20;;;30.50;99.90;;;;;;5024575;28;20025;-64
2023/07/12 08:02:11;;;;;;;7.07;2.40;;;30.40;99.90;;;;;;5019395;28;20044;-63
2023/07/12 08:04:37;;;;;;;6.72;2.38;;;30.00;99.90;;;;;;5034316;28;20037;-61
2023/07/12 08:07:05;;;;;;;10.88;2.55;;;30.20;99.90;;;;;;5032320;28;20017;-63
2023/07/12 08:09:33;;;;;;;5.68;2.42;;;29.90;99.90;;;;;;5027083;28;20132;-64
2023/07/12 08:11:59;;;;;;;7.35;2.60;;;30.00;99.90;;;;;;5035707;28;20529;-60
2023/07/12 08:14:27;;;;;;;9.10;3.05;;;29.90;99.90;;;;;;5038617;28;20121;-61
2023/07/12 08:16:53;;;;;;;8.40;2.88;;;29.80;99.90;;;;;;5030643;28;20100;-61
2023/07/12 08:19:19;;;;;;;6.90;2.45;;;29.80;99.90;;;;;;5032816;28;20474;-61
2023/07/12 08:21:46;;;;;;;4.85;2.38;;;29.70;99.90;;;;;;5035556;28;20088;-60
2023/07/12 08:24:12;;;;;;;6.78;2.70;;;30.10;99.90;;;;;;5034545;28;20586;-60
2023/07/12 08:26:38;;;;;;;5.82;2.28;;;30.40;99.90;;;;;;5034847;28;20100;-62
2023/07/12 08:29:04;;;;;;;4.78;2.22;;;30.30;99.90;;;;;;5031039;28;20025;-65
2023/07/12 08:31:30;;;;;;;5.53;2.13;;;30.40;99.90;;;;;;5031549;28;20032;-66
2023/07/12 08:33:56;;;;;;;6.28;2.55;;;30.70;99.90;;;;;;5032479;28;20034;-65
2023/07/12 08:36:22;;;;;;;7.03;2.67;;;30.40;99.90;;;;;;5030210;28;20124;-63
2023/07/12 08:38:48;;;;;;;8.27;2.60;;;30.10;99.90;;;;;;5031354;28;20034;-62
2023/07/12 08:41:16;;;;;;;8.70;2.67;;;30.20;99.90;;;;;;5031556;28;20172;-62
2023/07/12 08:43:42;;;;;;;4.22;2.38;;;30.40;99.90;;;;;;5030861;28;20056;-59
2023/07/12 08:46:17;;;;;;;3.83;2.03;;;30.40;99.90;;;;;;5030465;28;20026;-64
2023/07/12 08:48:43;;;;;;;6.03;2.45;;;30.70;99.90;;;;;;5030382;28;20463;-62
2023/07/12 08:51:19;;;;;;;6.25;2.08;;;30.30;99.90;;;;;;5036471;28;20033;-62
2023/07/12 08:53:45;;;;;;;5.88;2.08;;;30.60;99.90;;;;;;5035678;28;20059;-63
2023/07/12 08:56:18;;;;;;;7.45;2.30;;;30.90;99.90;;;;;;5029882;28;20433;-63
2023/07/12 08:58:47;;;;;;;6.43;2.15;;;30.80;99.90;;;;;;5025714;28;20553;-63
2023/07/12 09:01:38;;;;;;;5.15;1.85;;;31.00;99.90;;;;;;5028595;28;20041;-62
2023/07/12 09:04:33;;;;;;;5.10;2.90;;;31.20;99.90;;;;;;5029735;28;20049;-62
2023/07/12 09:07:07;;;;;;;3.47;2.00;;;31.60;99.90;;;;;;5020205;28;20045;-58
2023/07/12 09:09:39;;;;;;;5.05;2.28;;;31.70;99.90;;;;;;5031197;28;20029;-58
2023/07/12 09:12:19;;;;;;;3.38;2.10;;;31.80;99.90;;;;;;5026003;28;20037;-59
2023/07/12 09:14:45;;;;;;;3.80;2.72;;;32.10;99.90;;;;;;5030911;28;20033;-61
2023/07/12 09:17:24;;;;;;;4.55;1.95;;;32.10;99.90;;;;;;5027492;28;20025;-60
2023/07/12 09:19:50;;;;;;;3.92;2.63;;;32.30;99.90;;;;;;5035527;28;20060;-59
2023/07/12 09:22:18;;;;;;;8.00;3.13;;;32.10;99.90;;;;;;5034213;28;20069;-60
2023/07/12 09:24:50;;;;;;;6.45;3.03;;;32.30;99.90;;;;;;5034904;28;20072;-61
2023/07/12 09:27:18;;;;;;;5.38;2.45;;;32.30;99.90;;;;;;5033451;28;20021;-60
2023/07/12 09:29:44;;;;;;;3.53;2.65;;;31.70;99.90;;;;;;5035124;28;20156;-61
2023/07/12 09:32:28;;;;;;;3.88;2.70;;;31.40;99.90;;;;;;5027792;28;20018;-61
2023/07/12 09:34:54;;;;;;;4.30;2.38;;;31.40;99.90;;;;;;5028387;28;20036;-61
2023/07/12 09:37:22;;;;;;;5.95;3.40;;;32.00;99.90;;;;;;5032627;28;20034;-61
2023/07/12 09:40:15;;;;;;;6.05;3.20;;;32.60;99.90;;;;;;5023811;28;20168;-63
2023/07/12 09:42:46;;;;;;;6.85;3.70;;;32.00;99.90;;;;;;5030155;28;20483;-62
2023/07/12 09:45:12;;;;;;;4.68;3.60;;;32.30;99.90;;;;;;5034203;28;20037;-59
2023/07/12 09:48:15;;;;;;;6.18;4.00;;;32.80;99.90;;;;;;5034670;28;20055;-60
2023/07/12 09:50:56;;;;;;;11.60;5.18;;;32.60;99.90;;;;;;5024295;28;20356;-60
2023/07/12 09:53:42;;;;;;;72.60;12.20;;;31.90;99.90;;;;;;5031859;28;20487;-59
2023/07/12 09:56:39;;;;;;;10.27;4.43;;;32.40;99.90;;;;;;5022575;28;20105;-59
2023/07/12 09:59:36;;;;;;;6.35;3.97;;;33.10;99.90;;;;;;5028739;28;20069;-59
2023/07/12 10:02:19;;;;;;;9.60;5.60;;;33.10;99.90;;;;;;5028902;28;20064;-59
2023/07/12 10:05:10;;;;;;;5.93;4.63;;;33.40;99.90;;;;;;5030060;28;20183;-60
2023/07/12 10:07:52;;;;;;;6.63;4.30;;;33.50;99.90;;;;;;5033633;28;20030;-68
2023/07/12 10:10:29;;;;;;;7.95;4.30;;;33.10;99.90;;;;;;5030446;28;20095;-58
2023/07/12 10:13:05;;;;;;;5.97;4.13;;;33.90;99.90;;;;;;5020649;28;20026;-62
2023/07/12 10:15:36;;;;;;;5.00;4.50;;;33.40;99.90;;;;;;5048880;28;20060;-63
2023/07/12 10:18:03;;;;;;;6.72;4.47;;;33.70;99.90;;;;;;5033013;28;20136;-62
2023/07/12 10:20:29;;;;;;;8.55;4.93;;;34.00;99.90;;;;;;5029743;28;20168;-63
2023/07/12 10:22:56;;;;;;;8.48;5.32;;;34.10;99.90;;;;;;5028953;28;20022;-63
2023/07/12 10:25:30;;;;;;;6.38;5.40;;;33.40;99.90;;;;;;5027134;28;20067;-63
2023/07/12 10:28:11;;;;;;;9.75;5.90;;;33.40;99.90;;;;;;5029162;28;20487;-60
2023/07/12 10:30:39;;;;;;;6.88;5.50;;;33.80;99.90;;;;;;5034639;28;20475;-61
2023/07/12 10:33:22;;;;;;;9.02;5.90;;;33.60;99.90;;;;;;5031119;28;20028;-61
2023/07/12 10:36:14;;;;;;;10.90;6.07;;;32.90;99.90;;;;;;5038270;28;20102;-58
2023/07/12 10:38:40;;;;;;;6.80;5.93;;;33.70;99.90;;;;;;5024532;28;20064;-59
2023/07/12 10:41:18;;;;;;;10.18;6.57;;;34.30;99.90;;;;;;5025805;28;20467;-58
2023/07/12 10:43:49;;;;;;;7.80;6.13;;;35.50;99.90;;;;;;5031585;28;20045;-59
2023/07/12 10:46:33;;;;;;;8.57;6.20;;;35.20;99.90;;;;;;5032813;28;20179;-59
2023/07/12 10:49:03;;;;;;;11.23;6.07;;;34.60;99.90;;;;;;5032922;28;20033;-58
2023/07/12 10:51:38;;;;;;;9.32;6.03;;;35.10;99.90;;;;;;5033392;28;20479;-58
2023/07/12 10:54:21;;;;;;;11.93;7.00;;;35.50;99.90;;;;;;5031118;28;20029;-59
2023/07/12 10:56:53;;;;;;;12.55;6.50;;;35.20;99.90;;;;;;5028612;28;20033;-58
2023/07/12 10:59:30;;;;;;;7.72;6.20;;;35.30;99.90;;;;;;5033421;28;20037;-59
2023/07/12 11:02:09;;;;;;;10.98;6.90;;;35.20;99.90;;;;;;5014307;28;20038;-58
2023/07/12 11:04:44;;;;;;;8.65;6.30;;;35.20;99.90;;;;;;5033465;28;20483;-58
2023/07/12 11:07:14;;;;;;;8.38;6.15;;;34.80;99.90;;;;;;5031716;28;20047;-58
2023/07/12 11:09:46;;;;;;;9.95;6.15;;;35.40;99.90;;;;;;5032143;28;20495;-57
2023/07/12 11:12:30;;;;;;;9.18;6.43;;;35.30;99.90;;;;;;5032709;28;20136;-58
2023/07/12 11:15:05;;;;;;;;;;;35.10;99.90;;;;;;5034155;28;20029;-58
2023/07/12 11:17:47;;;;;;;10.68;7.00;;;35.30;99.90;;;;;;5031826;28;19913;-58
2023/07/12 11:20:22;;;;;;;11.52;6.68;;;35.40;99.90;;;;;;5031740;28;20028;-57
2023/07/12 11:22:54;;;;;;;11.27;8.50;;;35.00;99.90;;;;;;5032097;28;20026;-58
2023/07/12 11:25:31;;;;;;;8.75;6.90;;;34.10;99.90;;;;;;5033542;28;20056;-58
2023/07/12 11:28:22;;;;;;;8.93;6.38;;;34.40;99.90;;;;;;5033128;28;20032;-57
2023/07/12 11:31:23;;;;;;;12.98;6.53;;;34.40;99.90;;;;;;5020409;28;20037;-58
2023/07/12 11:34:09;;;;;;;11.50;6.65;;;34.40;99.90;;;;;;5032358;28;20055;-57
2023/07/12 11:36:36;;;;;;;12.52;6.93;;;34.50;99.90;;;;;;5032417;28;20065;-57
2023/07/12 11:39:09;;;;;;;13.00;6.70;;;34.20;99.90;;;;;;5032032;28;20022;-57
2023/07/12 11:41:35;;;;;;;11.27;6.30;;;34.00;99.90;;;;;;5032483;28;20082;-57
2023/07/12 11:44:06;;;;;;;13.18;8.48;;;34.10;99.90;;;;;;5033144;28;20045;-56
2023/07/12 11:46:37;;;;;;;8.98;6.32;;;33.80;99.90;;;;;;5029463;28;20060;-58
2023/07/12 11:49:16;;;;;;;11.80;7.30;;;34.10;99.90;;;;;;5033095;28;20048;-56
2023/07/12 11:51:44;;;;;;;11.93;6.80;;;33.40;99.90;;;;;;5030543;28;20032;-58
2023/07/12 11:54:23;;;;;;;9.85;6.32;;;33.20;99.90;;;;;;5032098;28;20033;-57
2023/07/12 11:56:51;;;;;;;12.70;6.70;;;33.00;99.90;;;;;;5031336;28;20026;-57
2023/07/12 11:59:24;;;;;;;11.98;6.70;;;33.00;99.90;;;;;;5032977;28;20163;-57
2023/07/12 12:01:52;;;;;;;10.05;6.47;;;33.10;99.90;;;;;;5032237;28;20029;-57
2023/07/12 12:04:22;;;;;;;7.88;6.90;;;33.10;99.90;;;;;;5032882;28;20033;-57
2023/07/12 12:06:54;;;;;;;9.88;6.70;;;33.20;99.90;;;;;;5031744;28;20478;-57
2023/07/12 12:09:38;;;;;;;13.00;7.22;;;33.20;99.90;;;;;;5032033;28;20037;-57
2023/07/12 12:12:16;;;;;;;11.25;6.80;;;33.20;99.90;;;;;;5019746;28;20049;-57
2023/07/12 12:14:42;;;;;;;11.07;6.60;;;33.40;99.90;;;;;;5031095;28;20033;-57
2023/07/12 12:17:23;;;;;;;9.48;6.25;;;33.40;99.90;;;;;;5030437;28;20517;-59
2023/07/12 12:19:49;;;;;;;10.65;6.60;;;33.60;99.90;;;;;;5031792;28;20471;-58
2023/07/12 12:22:18;;;;;;;12.40;6.72;;;33.60;99.90;;;;;;5032304;28;20546;-56
2023/07/12 12:24:50;;;;;;;11.93;7.25;;;33.20;99.90;;;;;;5036878;28;20041;-62
2023/07/12 12:27:22;;;;;;;10.45;6.75;;;33.70;99.90;;;;;;5034228;28;20356;-55
2023/07/12 12:29:51;;;;;;;12.95;7.47;;;34.00;99.90;;;;;;5035912;28;20389;-57
2023/07/12 12:32:19;;;;;;;12.73;6.80;;;34.20;99.90;;;;;;5036693;28;20068;-56
2023/07/12 12:34:51;;;;;;;12.90;6.90;;;34.00;99.90;;;;;;5036277;28;20056;-57
2023/07/12 12:37:25;;;;;;;12.35;6.93;;;34.20;99.90;;;;;;5035796;28;20033;-57
2023/07/12 12:39:58;;;;;;;10.43;6.85;;;33.90;99.90;;;;;;5022813;28;20534;-57
2023/07/12 12:42:26;;;;;;;10.77;7.00;;;34.30;99.90;;;;;;5035090;28;20061;-58
2023/07/12 12:44:54;;;;;;;10.85;7.25;;;34.50;99.90;;;;;;5034615;28;20041;-62
2023/07/12 12:47:26;;;;;;;11.90;6.70;;;34.10;99.90;;;;;;5033354;28;20486;-60
2023/07/12 12:49:52;;;;;;;12.93;7.60;;;33.80;99.90;;;;;;5036137;28;20426;-64
2023/07/12 12:52:29;;;;;;;13.80;7.28;;;33.80;99.90;;;;;;5032570;28;20014;-62